Terminal Aerodrome Forecast
Issued by NWS Green Bay, WI

Home | Current Version | Previous Version | Graphics & Text | Print | Product List | Glossary On
Versions: 1 2 3 4 5 6 7 8 9 10 11 12 13 14 15 16 17 18 19
000
FTUS43 KGRB 262323
TAFGRB
TAF
KGRB 262323Z 2700/2724 06012KT P6SM SCT250
     FM270600 04007KT P6SM SCT250
     FM271600 07014G23KT P6SM BKN250
     FM272200 08016G25KT P6SM SCT100 OVC200=

USA.gov is the U.S. government's official web portal to all federal, state and local government web resources and services.